Time;durP1;ratioP1;P1;durP2;ratioP2;P2;SDS_P1;SDS_P2;PMS_P1;PMS_P2;Temp;Humidity;BMP_temperature;BMP_pressure;BME280_temperature;BME280_humidity;BME280_pressure;Samples;Min_cycle;Max_cycle;Signal;HPM_P1;HPM_P2
2023/04/11 00:00:13;;;;;;;4.88;4.00;;;21.50;33.40;;;;;;5092889;28;20047;-61
2023/04/11 00:02:40;;;;;;;4.65;3.83;;;21.50;33.40;;;;;;5092454;28;20480;-60
2023/04/11 00:05:08;;;;;;;3.92;3.40;;;21.50;33.40;;;;;;5096092;28;20456;-60
2023/04/11 00:07:35;;;;;;;5.22;3.67;;;21.50;33.50;;;;;;5097154;28;20051;-60
2023/04/11 00:10:03;;;;;;;4.60;4.10;;;21.50;33.40;;;;;;5097147;28;20135;-60
2023/04/11 00:12:31;;;;;;;4.65;3.92;;;21.50;33.40;;;;;;5097318;28;20093;-59
2023/04/11 00:14:58;;;;;;;4.82;3.45;;;21.50;33.40;;;;;;5097223;28;20053;-60
2023/04/11 00:17:30;;;;;;;4.20;3.60;;;21.50;33.40;;;;;;5096901;28;20055;-60
2023/04/11 00:20:00;;;;;;;4.90;3.67;;;21.40;33.40;;;;;;5097091;28;20052;-60
2023/04/11 00:22:27;;;;;;;4.43;3.75;;;21.50;33.40;;;;;;5096574;28;20072;-59
2023/04/11 00:24:54;;;;;;;5.78;4.47;;;21.50;33.40;;;;;;5096795;28;20057;-60
2023/04/11 00:27:22;;;;;;;5.40;3.88;;;21.50;33.50;;;;;;5097052;28;20044;-60
2023/04/11 00:29:49;;;;;;;4.18;3.80;;;21.40;33.40;;;;;;5096434;28;20087;-60
2023/04/11 00:32:16;;;;;;;4.28;3.88;;;21.40;33.40;;;;;;5096932;28;20048;-60
2023/04/11 00:34:43;;;;;;;3.88;3.58;;;21.40;33.40;;;;;;5096487;28;20055;-59
2023/04/11 00:37:11;;;;;;;4.43;3.97;;;21.40;33.40;;;;;;5096535;28;20131;-60
2023/04/11 00:39:39;;;;;;;5.70;4.53;;;21.40;33.50;;;;;;5096585;28;20166;-60
2023/04/11 00:42:07;;;;;;;4.70;3.70;;;21.40;33.50;;;;;;5096761;28;20077;-60
2023/04/11 00:44:35;;;;;;;5.03;4.13;;;21.40;33.50;;;;;;5096249;28;20056;-60
2023/04/11 00:47:05;;;;;;;4.47;3.53;;;21.40;33.50;;;;;;5096686;28;20450;-59
2023/04/11 00:49:33;;;;;;;4.28;3.88;;;21.40;33.50;;;;;;5096507;28;20093;-59
2023/04/11 00:52:01;;;;;;;4.88;4.10;;;21.40;33.50;;;;;;5096121;28;20048;-60
2023/04/11 00:54:30;;;;;;;5.40;4.15;;;21.40;33.50;;;;;;5096385;28;20130;-59
2023/04/11 00:57:01;;;;;;;4.28;3.88;;;21.40;33.50;;;;;;5096250;28;20130;-60
2023/04/11 00:59:30;;;;;;;3.90;3.50;;;21.30;33.50;;;;;;5095894;28;20058;-60
2023/04/11 01:01:58;;;;;;;4.38;3.83;;;21.30;33.50;;;;;;5096240;28;20416;-60
2023/04/11 01:04:25;;;;;;;4.47;3.70;;;21.30;33.50;;;;;;5095981;28;20052;-59
2023/04/11 01:06:57;;;;;;;4.22;3.83;;;21.30;33.50;;;;;;5096004;28;20118;-60
2023/04/11 01:09:27;;;;;;;4.18;3.75;;;21.30;33.50;;;;;;5095867;28;20043;-59
2023/04/11 01:11:55;;;;;;;4.10;3.70;;;21.30;33.50;;;;;;5095786;28;20090;-59
2023/04/11 01:14:24;;;;;;;4.30;3.42;;;21.30;33.50;;;;;;5095696;28;20048;-59
2023/04/11 01:16:51;;;;;;;4.32;3.65;;;21.30;33.50;;;;;;5096119;28;20400;-59
2023/04/11 01:19:20;;;;;;;3.92;3.55;;;21.30;33.50;;;;;;5096004;28;20072;-59
2023/04/11 01:21:49;;;;;;;4.90;4.05;;;21.30;33.50;;;;;;5095511;28;20044;-59
2023/04/11 01:24:16;;;;;;;4.05;3.65;;;21.30;33.50;;;;;;5095646;28;20063;-60
2023/04/11 01:26:44;;;;;;;4.78;3.80;;;21.30;33.50;;;;;;5095658;28;20054;-59
2023/04/11 01:29:11;;;;;;;3.65;3.35;;;21.30;33.50;;;;;;5095743;28;20420;-60
2023/04/11 01:31:38;;;;;;;4.43;3.58;;;21.30;33.60;;;;;;5095858;28;20088;-59
2023/04/11 01:34:07;;;;;;;3.55;3.20;;;21.30;33.50;;;;;;5095108;28;20052;-60
2023/04/11 01:36:35;;;;;;;4.55;3.80;;;21.30;34.10;;;;;;5095462;28;20048;-60
2023/04/11 01:39:02;;;;;;;3.47;3.17;;;21.30;33.50;;;;;;5095269;28;20123;-60
2023/04/11 01:41:31;;;;;;;5.13;4.05;;;21.30;33.50;;;;;;5095203;28;20044;-59
2023/04/11 01:43:58;;;;;;;4.25;3.45;;;21.30;33.50;;;;;;5094662;28;20055;-59
2023/04/11 01:46:25;;;;;;;4.93;3.78;;;21.30;33.50;;;;;;5095525;28;20052;-60
2023/04/11 01:48:55;;;;;;;4.68;4.20;;;21.20;33.50;;;;;;5095461;28;20131;-59
2023/04/11 01:51:22;;;;;;;3.95;3.35;;;21.20;33.50;;;;;;5095144;28;20044;-60
2023/04/11 01:53:49;;;;;;;4.47;3.63;;;21.20;33.50;;;;;;5095153;28;20074;-59
2023/04/11 01:56:16;;;;;;;4.82;3.90;;;21.20;33.50;;;;;;5095098;28;20481;-60
2023/04/11 01:58:44;;;;;;;4.45;3.38;;;21.20;33.50;;;;;;5095010;28;20123;-60
2023/04/11 02:01:12;;;;;;;4.05;3.47;;;21.20;33.50;;;;;;5095209;28;20048;-60
2023/04/11 02:03:39;;;;;;;3.90;3.50;;;21.20;33.60;;;;;;5095026;28;20054;-60
2023/04/11 02:06:06;;;;;;;5.47;3.65;;;21.20;33.50;;;;;;5094801;28;20055;-60
2023/04/11 02:08:34;;;;;;;4.10;3.60;;;21.20;33.50;;;;;;5093621;28;20123;-60
2023/04/11 02:11:01;;;;;;;3.72;3.42;;;21.20;33.50;;;;;;5094706;28;20052;-60
2023/04/11 02:13:29;;;;;;;4.40;3.88;;;21.20;33.50;;;;;;5094664;28;20059;-59
2023/04/11 02:15:56;;;;;;;4.60;3.35;;;21.20;33.50;;;;;;5094831;28;20135;-60
2023/04/11 02:18:23;;;;;;;4.97;3.42;;;21.20;33.50;;;;;;5094824;28;20048;-60
2023/04/11 02:20:52;;;;;;;4.18;3.70;;;21.20;33.50;;;;;;5094488;28;20048;-60
2023/04/11 02:23:19;;;;;;;3.45;3.15;;;21.30;33.50;;;;;;5093588;28;20051;-60
2023/04/11 02:25:46;;;;;;;3.17;2.92;;;21.20;33.50;;;;;;5094694;28;20085;-59
2023/04/11 02:28:13;;;;;;;5.00;3.92;;;21.20;33.50;;;;;;5092520;28;20055;-60
2023/04/11 02:30:40;;;;;;;4.25;3.10;;;21.20;33.50;;;;;;5094606;28;20040;-60
2023/04/11 02:33:08;;;;;;;5.30;3.92;;;21.30;33.50;;;;;;5094586;28;20503;-60
2023/04/11 02:35:35;;;;;;;4.30;3.28;;;21.20;33.50;;;;;;5094202;28;20044;-59
2023/04/11 02:38:02;;;;;;;3.08;2.78;;;21.20;33.50;;;;;;5094024;28;20047;-59
2023/04/11 02:40:29;;;;;;;5.95;3.83;;;21.20;33.50;;;;;;5094022;28;20052;-59
2023/04/11 02:42:56;;;;;;;3.30;3.00;;;21.20;33.50;;;;;;5093665;28;20052;-59
2023/04/11 02:45:24;;;;;;;3.55;3.25;;;21.20;33.50;;;;;;5094059;28;20130;-60
2023/04/11 02:47:51;;;;;;;3.45;3.15;;;21.20;33.50;;;;;;5092718;28;20052;-60
2023/04/11 02:50:19;;;;;;;4.93;3.88;;;21.20;33.50;;;;;;5092369;28;20487;-60
2023/04/11 02:52:48;;;;;;;3.90;3.50;;;21.20;33.50;;;;;;5093465;28;20131;-59
2023/04/11 02:55:15;;;;;;;3.50;3.20;;;21.20;33.50;;;;;;5092772;28;20048;-60
2023/04/11 02:57:43;;;;;;;3.53;3.15;;;21.20;33.60;;;;;;5093817;28;20051;-59
2023/04/11 03:00:10;;;;;;;3.60;3.28;;;21.20;33.60;;;;;;5093685;28;20143;-60
2023/04/11 03:02:37;;;;;;;3.85;3.05;;;21.10;33.50;;;;;;5093848;28;20544;-60
2023/04/11 03:05:06;;;;;;;3.40;3.00;;;21.10;33.50;;;;;;5093696;28;20044;-60
2023/04/11 03:07:33;;;;;;;3.15;2.75;;;21.10;33.50;;;;;;5093636;28;20044;-60
2023/04/11 03:10:00;;;;;;;4.40;3.60;;;21.10;33.50;;;;;;5093503;28;20044;-60
2023/04/11 03:12:27;;;;;;;4.10;3.58;;;21.20;33.60;;;;;;5093690;28;20048;-60
2023/04/11 03:14:54;;;;;;;3.80;2.97;;;21.10;33.50;;;;;;5093351;28;20047;-60
2023/04/11 03:17:21;;;;;;;3.65;3.33;;;21.10;33.50;;;;;;5093934;28;20464;-60
2023/04/11 03:19:48;;;;;;;3.53;3.22;;;21.10;33.50;;;;;;5093657;28;20163;-60
2023/04/11 03:22:16;;;;;;;4.13;3.35;;;21.10;33.50;;;;;;5093383;28;20473;-60
2023/04/11 03:24:43;;;;;;;4.45;3.30;;;21.10;33.50;;;;;;5093351;28;20051;-59
2023/04/11 03:27:10;;;;;;;3.53;3.03;;;21.10;33.50;;;;;;5091250;28;20472;-59
2023/04/11 03:29:37;;;;;;;3.83;3.40;;;21.10;33.50;;;;;;5072157;28;20497;-59
2023/04/11 03:32:05;;;;;;;3.72;3.38;;;21.10;33.50;;;;;;5073135;28;20053;-60
2023/04/11 03:34:32;;;;;;;4.03;3.38;;;21.10;33.50;;;;;;5072948;28;20044;-60
2023/04/11 03:36:59;;;;;;;3.72;3.35;;;21.10;33.50;;;;;;5073122;28;20059;-60
2023/04/11 03:39:26;;;;;;;4.28;3.15;;;21.10;33.50;;;;;;5073230;28;20147;-60
2023/04/11 03:41:54;;;;;;;3.95;3.22;;;21.10;33.50;;;;;;5073232;28;20055;-60
2023/04/11 03:44:21;;;;;;;3.53;3.08;;;21.10;33.50;;;;;;5075878;28;20453;-61
2023/04/11 03:46:49;;;;;;;3.40;3.10;;;21.10;33.50;;;;;;5093177;28;20142;-60
2023/04/11 03:49:16;;;;;;;3.60;3.30;;;21.10;33.50;;;;;;5092964;28;20135;-59
2023/04/11 03:51:43;;;;;;;4.18;3.47;;;21.10;33.50;;;;;;5090516;28;20083;-60
2023/04/11 03:54:10;;;;;;;3.53;3.22;;;21.10;33.50;;;;;;5088927;28;20397;-60
2023/04/11 03:56:37;;;;;;;3.60;2.80;;;21.10;33.50;;;;;;5072975;28;20044;-60
2023/04/11 03:59:04;;;;;;;3.15;2.85;;;21.10;33.60;;;;;;5080190;28;20059;-60
2023/04/11 04:01:31;;;;;;;4.28;3.30;;;21.10;33.50;;;;;;5090125;28;20399;-60
2023/04/11 04:03:59;;;;;;;3.30;3.00;;;21.00;33.50;;;;;;5076263;28;20106;-60
2023/04/11 04:06:27;;;;;;;4.40;3.00;;;21.10;33.50;;;;;;5083640;28;20090;-61
2023/04/11 04:08:55;;;;;;;3.17;2.88;;;21.10;33.50;;;;;;5089219;28;20048;-60
2023/04/11 04:11:22;;;;;;;3.88;3.47;;;21.10;33.50;;;;;;5092779;28;20045;-60
2023/04/11 04:13:49;;;;;;;3.92;3.25;;;21.10;33.50;;;;;;5093004;28;20051;-60
2023/04/11 04:16:16;;;;;;;3.78;2.90;;;21.10;33.50;;;;;;5090544;28;20047;-60
2023/04/11 04:18:43;;;;;;;3.05;2.60;;;21.10;33.50;;;;;;5086085;28;20047;-60
2023/04/11 04:21:11;;;;;;;3.10;2.80;;;21.10;33.50;;;;;;5087571;28;20050;-60
2023/04/11 04:23:46;;;;;;;4.30;3.53;;;21.10;33.50;;;;;;5090967;28;20041;-60
2023/04/11 04:26:15;;;;;;;4.43;2.88;;;21.10;33.40;;;;;;5085019;28;20040;-60
2023/04/11 04:28:44;;;;;;;3.30;3.00;;;21.10;33.40;;;;;;5084013;28;20053;-60
2023/04/11 04:31:14;;;;;;;3.92;3.22;;;21.20;33.50;;;;;;5087767;28;20076;-60
2023/04/11 04:33:45;;;;;;;3.22;2.92;;;21.10;33.40;;;;;;5091013;28;20135;-60
2023/04/11 04:36:12;;;;;;;6.65;4.13;;;21.10;33.30;;;;;;5092667;28;20047;-60
2023/04/11 04:38:40;;;;;;;4.63;4.03;;;21.10;33.20;;;;;;5092657;28;20055;-60
2023/04/11 04:41:13;;;;;;;5.78;3.88;;;21.10;33.00;;;;;;5074014;28;20045;-60
2023/04/11 04:43:41;;;;;;;5.32;4.35;;;21.10;33.10;;;;;;5087834;28;20127;-60
2023/04/11 04:46:09;;;;;;;4.65;3.67;;;21.10;33.10;;;;;;5082854;28;20044;-60
2023/04/11 04:48:37;;;;;;;4.72;3.83;;;21.10;33.10;;;;;;5091103;28;20058;-60
2023/04/11 04:51:05;;;;;;;4.07;3.67;;;21.10;33.10;;;;;;5086372;28;20048;-60
2023/04/11 04:53:33;;;;;;;4.63;3.80;;;21.10;33.00;;;;;;5096158;28;20135;-60
2023/04/11 04:56:01;;;;;;;4.15;3.75;;;21.10;33.00;;;;;;5086786;28;20197;-60
2023/04/11 04:58:28;;;;;;;4.43;3.72;;;21.10;32.90;;;;;;5083949;28;20040;-60
2023/04/11 05:00:55;;;;;;;4.22;3.83;;;21.10;32.90;;;;;;5075501;28;20059;-60
2023/04/11 05:03:23;;;;;;;4.45;3.75;;;21.20;32.80;;;;;;5074570;28;20090;-60
2023/04/11 05:05:50;;;;;;;4.72;3.90;;;21.20;32.80;;;;;;5081715;28;20048;-60
2023/04/11 05:08:19;;;;;;;5.72;4.28;;;21.20;32.70;;;;;;5086141;28;20094;-59
2023/04/11 05:10:46;;;;;;;5.15;4.55;;;21.30;32.70;;;;;;5088154;28;20048;-60
2023/04/11 05:13:14;;;;;;;5.05;4.53;;;21.30;32.60;;;;;;5092455;28;20071;-60
2023/04/11 05:15:47;;;;;;;4.95;4.22;;;21.30;32.60;;;;;;5085197;28;20047;-60
2023/04/11 05:18:15;;;;;;;6.68;5.10;;;21.40;32.50;;;;;;5087183;28;20135;-58
2023/04/11 05:20:42;;;;;;;5.47;4.78;;;21.40;32.50;;;;;;5088162;28;20052;-60
2023/04/11 05:23:09;;;;;;;6.30;5.05;;;21.50;32.50;;;;;;5086947;28;20060;-59
2023/04/11 05:25:36;;;;;;;8.15;5.15;;;21.50;32.50;;;;;;5086911;28;20132;-58
2023/04/11 05:28:03;;;;;;;7.25;5.35;;;21.60;32.60;;;;;;5086266;28;20051;-59
2023/04/11 05:30:31;;;;;;;8.77;5.28;;;21.60;32.50;;;;;;5085512;28;20135;-59
2023/04/11 05:32:58;;;;;;;7.28;5.40;;;21.60;32.50;;;;;;5081978;28;20037;-60
2023/04/11 05:35:25;;;;;;;7.50;5.75;;;21.70;32.50;;;;;;5079814;28;20477;-58
2023/04/11 05:37:54;;;;;;;8.40;5.88;;;21.70;32.40;;;;;;5081108;28;20462;-58
2023/04/11 05:40:21;;;;;;;6.20;5.15;;;21.80;32.40;;;;;;5080256;28;20073;-58
2023/04/11 05:42:49;;;;;;;7.72;5.40;;;21.80;32.40;;;;;;5085831;28;20063;-58
2023/04/11 05:45:16;;;;;;;6.40;4.90;;;21.90;32.40;;;;;;5075766;28;20056;-58
2023/04/11 05:47:43;;;;;;;8.02;5.60;;;21.90;32.40;;;;;;5080181;28;20054;-59
2023/04/11 05:50:11;;;;;;;10.48;5.88;;;22.00;32.40;;;;;;5082467;28;20480;-59
2023/04/11 05:52:38;;;;;;;7.18;6.03;;;22.10;32.40;;;;;;5082436;28;20135;-59
2023/04/11 05:55:06;;;;;;;8.23;5.85;;;22.10;32.30;;;;;;5079606;28;20044;-58
2023/04/11 05:57:33;;;;;;;7.30;5.43;;;22.20;32.50;;;;;;5079555;28;20071;-58
2023/04/11 06:00:12;;;;;;;8.82;5.68;;;22.30;32.50;;;;;;5080792;28;20096;-58
2023/04/11 06:02:42;;;;;;;10.35;6.80;;;22.30;32.30;;;;;;5080976;28;20055;-58
2023/04/11 06:05:10;;;;;;;10.98;5.65;;;22.40;32.20;;;;;;5080529;28;20562;-57
2023/04/11 06:07:38;;;;;;;9.27;6.28;;;22.40;32.20;;;;;;5074618;28;20095;-57
2023/04/11 06:10:06;;;;;;;9.88;6.35;;;22.50;32.30;;;;;;5076589;28;20040;-57
2023/04/11 06:12:34;;;;;;;8.80;6.40;;;22.50;32.20;;;;;;5070706;28;20066;-59
2023/04/11 06:15:02;;;;;;;10.35;6.57;;;22.60;32.40;;;;;;5079658;28;20048;-58
2023/04/11 06:17:29;;;;;;;9.38;5.93;;;22.70;32.60;;;;;;5081973;28;20063;-58
2023/04/11 06:19:56;;;;;;;8.63;6.78;;;22.80;32.80;;;;;;5081790;28;20047;-58
2023/04/11 06:22:24;;;;;;;7.15;6.32;;;22.80;32.80;;;;;;5078992;28;20496;-59
2023/04/11 06:24:52;;;;;;;7.65;5.78;;;22.80;32.90;;;;;;5083188;28;20075;-60
2023/04/11 06:27:19;;;;;;;8.02;6.10;;;22.90;33.00;;;;;;5079030;28;20051;-59
2023/04/11 06:29:46;;;;;;;9.45;6.60;;;23.00;33.00;;;;;;5079517;28;20121;-59
2023/04/11 06:32:14;;;;;;;7.38;6.10;;;23.00;33.00;;;;;;5082382;28;20169;-58
2023/04/11 06:34:42;;;;;;;8.18;6.50;;;23.10;33.00;;;;;;5083005;28;20067;-58
2023/04/11 06:37:09;;;;;;;9.75;7.20;;;23.20;32.70;;;;;;5079765;28;20407;-58
2023/04/11 06:39:36;;;;;;;11.90;6.70;;;23.30;32.50;;;;;;5081419;28;20094;-57
2023/04/11 06:42:03;;;;;;;8.88;6.55;;;23.30;32.20;;;;;;5081186;28;20167;-58
2023/04/11 06:44:30;;;;;;;8.55;6.80;;;23.40;32.10;;;;;;5083196;28;20083;-58
2023/04/11 06:46:59;;;;;;;7.97;7.13;;;23.50;32.10;;;;;;5085025;28;20067;-57
2023/04/11 06:49:30;;;;;;;10.63;7.00;;;23.60;32.00;;;;;;5077091;28;20054;-58
2023/04/11 06:51:58;;;;;;;8.95;6.88;;;23.70;32.00;;;;;;5081485;28;20080;-58
2023/04/11 06:54:25;;;;;;;12.10;7.20;;;23.70;32.40;;;;;;5074493;28;20041;-59
2023/04/11 06:56:52;;;;;;;11.45;6.78;;;23.70;32.50;;;;;;5073744;28;20110;-58
2023/04/11 06:59:20;;;;;;;7.72;6.70;;;23.80;32.50;;;;;;5057583;28;20048;-58
2023/04/11 07:01:49;;;;;;;8.02;6.50;;;23.80;32.50;;;;;;5079345;28;20040;-59
2023/04/11 07:04:16;;;;;;;8.55;6.45;;;23.90;32.60;;;;;;5080462;28;20052;-59
2023/04/11 07:06:44;;;;;;;8.75;6.68;;;23.90;32.90;;;;;;5082358;28;20704;-58
2023/04/11 07:09:12;;;;;;;10.77;7.25;;;23.90;33.10;;;;;;5076853;28;20481;-59
2023/04/11 07:11:40;;;;;;;8.55;6.75;;;24.00;33.00;;;;;;5082176;28;20101;-59
2023/04/11 07:14:07;;;;;;;11.63;6.85;;;24.00;32.90;;;;;;5081825;28;20516;-58
2023/04/11 07:16:34;;;;;;;9.30;6.57;;;24.00;32.90;;;;;;5081511;28;20048;-58
2023/04/11 07:19:02;;;;;;;10.63;7.32;;;24.10;33.00;;;;;;5079387;28;20055;-58
2023/04/11 07:21:31;;;;;;;9.05;6.72;;;24.10;33.10;;;;;;5080331;28;20056;-60
2023/04/11 07:23:59;;;;;;;19.27;6.78;;;24.20;33.20;;;;;;5078105;28;20101;-58
2023/04/11 07:26:30;;;;;;;8.48;6.88;;;24.20;33.40;;;;;;5079727;28;20051;-59
2023/04/11 07:28:58;;;;;;;8.43;6.30;;;24.20;33.00;;;;;;5077139;28;20626;-59
2023/04/11 07:31:26;;;;;;;13.02;7.97;;;24.20;33.40;;;;;;5079699;28;20056;-59
2023/04/11 07:33:53;;;;;;;9.73;6.97;;;24.30;33.60;;;;;;5081776;28;20036;-59
2023/04/11 07:36:20;;;;;;;9.38;6.93;;;24.30;33.60;;;;;;5081153;28;20056;-59
2023/04/11 07:38:48;;;;;;;10.00;7.53;;;24.30;33.70;;;;;;5080085;28;20519;-59
2023/04/11 07:41:15;;;;;;;9.32;6.72;;;24.30;33.80;;;;;;5080157;28;20135;-58
2023/04/11 07:43:42;;;;;;;8.85;6.57;;;24.30;33.70;;;;;;5079196;28;20543;-58
2023/04/11 07:46:10;;;;;;;10.65;6.70;;;24.40;34.40;;;;;;5079404;28;20564;-61
2023/04/11 07:48:38;;;;;;;9.45;6.70;;;24.30;34.40;;;;;;5080333;28;20048;-62
2023/04/11 07:51:05;;;;;;;9.05;6.40;;;24.40;34.20;;;;;;5076624;28;20048;-58
2023/04/11 07:53:32;;;;;;;7.15;5.88;;;24.40;34.20;;;;;;5078828;28;20093;-59
2023/04/11 07:56:00;;;;;;;7.72;6.07;;;24.40;34.40;;;;;;5080114;28;20139;-60
2023/04/11 07:58:27;;;;;;;8.43;6.88;;;24.40;34.90;;;;;;5075805;28;20439;-60
2023/04/11 08:00:55;;;;;;;7.25;5.90;;;24.40;34.20;;;;;;5078423;28;21044;-60
2023/04/11 08:03:22;;;;;;;8.65;7.47;;;24.40;34.00;;;;;;5081015;28;20539;-60
2023/04/11 08:05:51;;;;;;;7.57;6.60;;;24.40;34.30;;;;;;5080882;28;20504;-61
2023/04/11 08:08:18;;;;;;;8.75;6.38;;;24.50;34.50;;;;;;5063438;28;20058;-58
2023/04/11 08:10:46;;;;;;;7.28;6.45;;;24.40;34.80;;;;;;5079880;28;20044;-58
2023/04/11 08:13:13;;;;;;;9.27;6.35;;;24.50;34.80;;;;;;5079757;28;20159;-59
2023/04/11 08:15:40;;;;;;;9.70;6.43;;;24.50;34.40;;;;;;5081039;28;20074;-57
2023/04/11 08:18:07;;;;;;;7.13;5.65;;;24.50;34.10;;;;;;5082851;28;20413;-58
2023/04/11 08:20:39;;;;;;;6.30;5.65;;;24.60;34.00;;;;;;5079149;28;20489;-58
2023/04/11 08:23:09;;;;;;;7.45;5.90;;;24.60;33.90;;;;;;5081776;28;20114;-58
2023/04/11 08:25:37;;;;;;;7.45;5.95;;;24.60;33.80;;;;;;5083947;28;20044;-59
2023/04/11 08:28:05;;;;;;;7.00;5.45;;;24.60;34.00;;;;;;5087153;28;20048;-59
2023/04/11 08:30:32;;;;;;;9.23;6.13;;;24.70;34.40;;;;;;5085176;28;20388;-58
2023/04/11 08:33:00;;;;;;;19.63;5.78;;;24.70;34.00;;;;;;5086268;28;20097;-59
2023/04/11 08:35:28;;;;;;;8.63;5.93;;;24.70;34.20;;;;;;5067024;28;20443;-60
2023/04/11 08:37:55;;;;;;;6.63;5.70;;;24.80;33.90;;;;;;5084700;28;20060;-58
2023/04/11 08:40:22;;;;;;;11.57;6.93;;;24.80;34.40;;;;;;5084672;28;20519;-58
2023/04/11 08:42:58;;;;;;;7.40;6.38;;;24.80;34.00;;;;;;5083651;28;20117;-57
2023/04/11 08:45:26;;;;;;;11.50;6.30;;;24.90;33.60;;;;;;5082015;28;20052;-58
2023/04/11 08:47:53;;;;;;;6.63;5.88;;;24.90;33.50;;;;;;5081890;28;20135;-57
2023/04/11 08:50:20;;;;;;;6.65;5.13;;;25.00;33.80;;;;;;5085889;28;20398;-57
2023/04/11 08:52:50;;;;;;;10.40;6.22;;;25.00;33.30;;;;;;5082299;28;20048;-58
2023/04/11 08:55:17;;;;;;;11.77;6.07;;;25.00;33.30;;;;;;5082746;28;20210;-59
2023/04/11 08:57:44;;;;;;;6.35;5.53;;;25.10;33.10;;;;;;5074821;28;20055;-58
2023/04/11 09:00:17;;;;;;;6.72;5.53;;;25.10;32.90;;;;;;5073897;28;20056;-59
2023/04/11 09:03:01;;;;;;;8.20;6.15;;;25.10;32.30;;;;;;5078480;28;20557;-58
2023/04/11 09:05:31;;;;;;;10.95;5.50;;;25.10;31.40;;;;;;5081852;28;20416;-59
2023/04/11 09:08:00;;;;;;;7.03;5.82;;;25.10;31.30;;;;;;5082753;28;20044;-60
2023/04/11 09:10:28;;;;;;;8.57;5.88;;;25.10;32.20;;;;;;5080151;28;20052;-59
2023/04/11 09:12:57;;;;;;;6.90;5.57;;;25.20;32.60;;;;;;5095381;28;20074;-59
2023/04/11 09:15:26;;;;;;;5.97;5.32;;;25.20;32.60;;;;;;5084257;28;20054;-58
2023/04/11 09:17:55;;;;;;;6.97;5.13;;;25.20;32.40;;;;;;5082511;28;20040;-59
2023/04/11 09:20:28;;;;;;;7.22;5.40;;;25.20;32.40;;;;;;5084037;28;20036;-58
2023/04/11 09:23:00;;;;;;;7.18;4.97;;;25.30;32.10;;;;;;5084304;28;20062;-57
2023/04/11 09:25:27;;;;;;;7.90;4.88;;;25.30;31.90;;;;;;5082940;28;20089;-58
2023/04/11 09:28:09;;;;;;;6.45;5.25;;;25.30;31.90;;;;;;5082820;28;20051;-59
2023/04/11 09:30:36;;;;;;;5.95;5.30;;;25.40;31.70;;;;;;5080065;28;20048;-60
2023/04/11 09:33:22;;;;;;;6.38;5.22;;;25.40;31.80;;;;;;5082478;28;20039;-60
2023/04/11 09:35:51;;;;;;;6.07;5.47;;;25.40;32.10;;;;;;5083719;28;20139;-58
2023/04/11 09:38:33;;;;;;;6.80;5.72;;;25.40;32.00;;;;;;5085292;28;20083;-59
2023/04/11 09:41:03;;;;;;;6.85;5.20;;;25.40;31.70;;;;;;5082755;28;20101;-58
2023/04/11 09:43:51;;;;;;;6.15;5.32;;;25.40;31.70;;;;;;5082896;28;20093;-58
2023/04/11 09:46:19;;;;;;;6.00;4.90;;;25.40;31.40;;;;;;5080876;28;20048;-59
2023/04/11 09:48:48;;;;;;;5.97;4.97;;;25.50;31.00;;;;;;5081221;28;20169;-59
2023/04/11 09:51:17;;;;;;;5.55;4.90;;;25.50;31.10;;;;;;5080709;28;20045;-60
2023/04/11 09:54:05;;;;;;;5.78;4.95;;;25.50;31.30;;;;;;5082683;28;20052;-59
2023/04/11 09:56:33;;;;;;;6.35;4.65;;;25.60;31.10;;;;;;5079611;28;20039;-61
2023/04/11 09:59:02;;;;;;;6.57;4.50;;;25.60;31.00;;;;;;5079720;28;20055;-59
2023/04/11 10:01:29;;;;;;;5.95;4.97;;;25.60;31.10;;;;;;5080941;28;20106;-58
2023/04/11 10:03:57;;;;;;;6.15;4.65;;;25.70;31.00;;;;;;5081440;28;20048;-61
2023/04/11 10:06:32;;;;;;;4.65;3.85;;;25.70;30.60;;;;;;5083852;28;20052;-60
2023/04/11 10:09:06;;;;;;;5.90;4.93;;;25.70;30.10;;;;;;5082359;28;20054;-62
2023/04/11 10:11:34;;;;;;;7.25;5.05;;;25.70;30.00;;;;;;5084383;28;20097;-62
2023/04/11 10:14:02;;;;;;;5.38;4.38;;;25.70;30.00;;;;;;5083459;28;20056;-62
2023/04/11 10:16:32;;;;;;;8.40;4.63;;;25.70;29.80;;;;;;5080357;28;20044;-64
2023/04/11 10:19:21;;;;;;;5.05;4.25;;;25.70;29.80;;;;;;5083201;28;20082;-64
2023/04/11 10:21:48;;;;;;;5.53;4.47;;;25.70;29.70;;;;;;5079745;28;20176;-62
2023/04/11 10:24:19;;;;;;;5.55;3.83;;;25.70;29.70;;;;;;5082519;28;20048;-62
2023/04/11 10:26:48;;;;;;;;;;;25.80;29.80;;;;;;5080939;28;20048;-62
2023/04/11 10:29:45;;;;;;;4.40;3.78;;;25.80;29.70;;;;;;5083462;28;20015;-60
2023/04/11 10:32:20;;;;;;;5.95;5.13;;;25.80;29.50;;;;;;5080747;28;20127;-61
2023/04/11 10:35:21;;;;;;;5.22;3.88;;;25.80;29.50;;;;;;5079367;28;20059;-63
2023/04/11 10:37:49;;;;;;;5.70;4.63;;;25.80;29.40;;;;;;5080033;28;20086;-59
2023/04/11 10:40:19;;;;;;;5.30;4.45;;;25.90;29.40;;;;;;5084543;28;20450;-62
2023/04/11 10:42:47;;;;;;;5.60;4.22;;;25.90;29.50;;;;;;5082719;28;20044;-62
2023/04/11 10:45:29;;;;;;;4.95;4.40;;;25.90;29.30;;;;;;5083048;28;20139;-64
2023/04/11 10:48:02;;;;;;;4.25;3.72;;;25.90;29.20;;;;;;5078111;28;20123;-59
2023/04/11 10:50:36;;;;;;;5.18;4.68;;;25.90;29.20;;;;;;5080270;28;20076;-62
2023/04/11 10:53:08;;;;;;;5.25;4.05;;;26.00;29.40;;;;;;5081838;28;20058;-61
2023/04/11 10:55:49;;;;;;;4.60;4.05;;;26.00;29.90;;;;;;5081416;28;20138;-60
2023/04/11 10:58:20;;;;;;;6.88;4.18;;;26.10;29.50;;;;;;5046327;28;20522;-60
2023/04/11 11:01:13;;;;;;;4.70;3.92;;;26.10;29.80;;;;;;5080180;28;20048;-60
2023/04/11 11:04:00;;;;;;;5.80;4.55;;;26.10;29.30;;;;;;5081208;28;20125;-61
2023/04/11 11:06:28;;;;;;;5.82;4.35;;;26.20;29.30;;;;;;5078912;28;20485;-61
2023/04/11 11:08:56;;;;;;;5.53;4.53;;;26.20;29.30;;;;;;5079697;28;20056;-60
2023/04/11 11:11:24;;;;;;;6.85;4.45;;;26.30;29.30;;;;;;5082902;28;20072;-59
2023/04/11 11:13:54;;;;;;;4.68;4.15;;;26.30;29.20;;;;;;5078848;28;20052;-61
2023/04/11 11:16:24;;;;;;;4.18;3.80;;;26.30;29.20;;;;;;5080301;28;20052;-59
2023/04/11 11:18:58;;;;;;;4.80;4.25;;;26.20;29.10;;;;;;5083807;28;20048;-59
2023/04/11 11:21:27;;;;;;;5.00;4.35;;;26.20;29.10;;;;;;5081473;28;20048;-60
2023/04/11 11:23:57;;;;;;;4.45;4.05;;;26.20;29.10;;;;;;5081422;28;20141;-60
2023/04/11 11:26:40;;;;;;;5.47;4.20;;;26.20;29.10;;;;;;5077903;28;20447;-59
2023/04/11 11:29:10;;;;;;;4.32;3.90;;;26.20;29.00;;;;;;5081510;28;20122;-60
2023/04/11 11:31:40;;;;;;;5.38;4.15;;;26.20;29.00;;;;;;5080208;28;20385;-60
2023/04/11 11:34:08;;;;;;;;;;;26.10;29.40;;;;;;5082423;28;20055;-59
2023/04/11 11:36:49;;;;;;;5.47;4.32;;;26.10;28.90;;;;;;5081119;28;19928;-56
2023/04/11 11:39:17;;;;;;;4.22;3.83;;;26.20;29.00;;;;;;5080500;28;20044;-58
2023/04/11 11:41:46;;;;;;;4.72;4.07;;;26.20;28.90;;;;;;5080203;28;20063;-58
2023/04/11 11:44:22;;;;;;;4.00;3.60;;;26.20;28.90;;;;;;5081721;28;20416;-58
2023/04/11 11:47:04;;;;;;;4.32;3.92;;;26.20;28.90;;;;;;5081779;28;20044;-56
2023/04/11 11:49:53;;;;;;;4.47;3.67;;;26.20;28.90;;;;;;5083690;28;20377;-59
2023/04/11 11:52:42;;;;;;;4.32;3.38;;;26.20;28.90;;;;;;5083161;28;20538;-59
2023/04/11 11:55:30;;;;;;;4.93;3.90;;;26.10;28.90;;;;;;5083401;28;20515;-60
2023/04/11 11:58:00;;;;;;;4.80;4.13;;;26.20;28.80;;;;;;5078903;28;20074;-59
2023/04/11 12:00:33;;;;;;;3.95;3.60;;;26.20;28.80;;;;;;5082367;28;20056;-61
2023/04/11 12:03:01;;;;;;;4.07;3.67;;;26.20;28.80;;;;;;5086485;28;20051;-61
2023/04/11 12:05:31;;;;;;;3.65;3.35;;;26.20;28.90;;;;;;5085963;28;20083;-62
2023/04/11 12:08:00;;;;;;;4.88;4.25;;;26.20;28.90;;;;;;5084401;28;20489;-60
2023/04/11 12:10:40;;;;;;;6.55;3.92;;;26.20;28.90;;;;;;5086561;28;20127;-59
2023/04/11 12:13:12;;;;;;;6.65;3.60;;;26.30;28.90;;;;;;5086281;28;20063;-59
2023/04/11 12:15:42;;;;;;;9.73;3.40;;;26.30;28.90;;;;;;5084826;28;20036;-62
2023/04/11 12:18:09;;;;;;;5.40;3.22;;;26.40;28.90;;;;;;5082784;28;20044;-61
2023/04/11 12:20:37;;;;;;;3.38;3.08;;;26.40;28.80;;;;;;5087848;28;20529;-61
2023/04/11 12:23:04;;;;;;;3.42;3.10;;;26.40;28.80;;;;;;5086471;28;20056;-61
2023/04/11 12:25:31;;;;;;;3.78;3.28;;;26.40;28.90;;;;;;5086924;28;20057;-61
2023/04/11 12:27:58;;;;;;;4.28;3.70;;;26.40;28.90;;;;;;5084711;28;20646;-60
2023/04/11 12:30:25;;;;;;;3.85;3.53;;;26.50;28.90;;;;;;5085786;28;20825;-61
2023/04/11 12:32:55;;;;;;;5.18;3.78;;;26.50;28.90;;;;;;5084632;28;20484;-60
2023/04/11 12:35:23;;;;;;;9.45;3.70;;;26.50;28.90;;;;;;5085332;28;20055;-60
2023/04/11 12:37:50;;;;;;;4.13;3.35;;;26.50;28.80;;;;;;5084644;28;20631;-58
2023/04/11 12:40:17;;;;;;;4.10;3.13;;;26.50;28.80;;;;;;5084584;28;20051;-57
2023/04/11 12:42:46;;;;;;;5.55;3.13;;;26.40;28.70;;;;;;5086829;28;20488;-58
2023/04/11 12:45:16;;;;;;;3.75;3.17;;;26.40;28.70;;;;;;5085134;28;20056;-60
2023/04/11 12:47:44;;;;;;;4.13;3.53;;;26.40;28.70;;;;;;5084174;28;20050;-59
2023/04/11 12:50:11;;;;;;;4.57;3.42;;;26.40;28.70;;;;;;5087503;28;20052;-59
2023/04/11 12:52:38;;;;;;;3.17;2.88;;;26.30;28.70;;;;;;5084509;28;20040;-59
2023/04/11 12:55:07;;;;;;;5.30;3.28;;;26.30;28.70;;;;;;5083124;28;20052;-59